createdAt,value
2017-12-19T00:00:50.172Z,9.00
2017-12-19T00:01:52.633Z,7.63
2017-12-19T00:02:55.114Z,7.70
2017-12-19T00:03:57.593Z,8.70
2017-12-19T00:05:00.064Z,9.13
2017-12-19T00:06:02.582Z,9.07
2017-12-19T00:07:05.042Z,7.90
2017-12-19T00:08:07.505Z,9.00
2017-12-19T00:09:09.986Z,9.07
2017-12-19T00:10:12.455Z,7.80
2017-12-19T00:11:14.933Z,7.97
2017-12-19T00:12:17.404Z,7.70
2017-12-19T00:13:19.885Z,7.60
2017-12-19T00:14:22.378Z,8.10
2017-12-19T00:15:24.846Z,8.00
2017-12-19T00:16:27.324Z,8.00
2017-12-19T00:17:29.811Z,7.50
2017-12-19T00:18:32.266Z,7.00
2017-12-19T00:19:34.726Z,8.40
2017-12-19T00:20:37.187Z,7.70
2017-12-19T00:21:39.646Z,8.30
2017-12-19T00:22:42.140Z,7.67
2017-12-19T00:23:44.645Z,7.50
2017-12-19T00:24:47.125Z,8.20
2017-12-19T00:25:49.591Z,8.00
2017-12-19T00:26:52.105Z,8.00
2017-12-19T00:27:54.609Z,8.20
2017-12-19T00:28:57.071Z,8.30
2017-12-19T00:29:59.534Z,7.00
2017-12-19T00:31:02.017Z,7.40
2017-12-19T00:32:04.497Z,7.97
2017-12-19T00:33:06.997Z,7.72
2017-12-19T00:34:09.508Z,7.80
2017-12-19T00:35:11.987Z,8.90
2017-12-19T00:36:14.461Z,7.93
2017-12-19T00:37:16.942Z,8.15
2017-12-19T00:38:19.413Z,7.30
2017-12-19T00:39:21.889Z,6.90
2017-12-19T00:40:24.372Z,7.50
2017-12-19T00:41:26.866Z,7.00
2017-12-19T00:42:29.354Z,7.87
2017-12-19T00:43:31.813Z,6.37
2017-12-19T00:44:34.294Z,7.20
2017-12-19T00:45:37.214Z,7.33
2017-12-19T00:46:39.692Z,7.40
2017-12-19T00:47:42.166Z,7.10
2017-12-19T00:48:44.638Z,7.50
2017-12-19T00:49:47.120Z,7.27
2017-12-19T00:50:49.605Z,7.30
2017-12-19T00:51:52.097Z,7.00
2017-12-19T00:52:54.560Z,6.83
2017-12-19T00:53:57.035Z,7.23
2017-12-19T00:54:59.498Z,7.37
2017-12-19T00:56:01.985Z,7.03
2017-12-19T00:57:04.461Z,6.83
2017-12-19T00:58:06.941Z,7.33
2017-12-19T00:59:09.420Z,7.30
2017-12-19T01:00:12.061Z,7.03
2017-12-19T01:01:14.532Z,7.10
2017-12-19T01:02:16.995Z,6.80
2017-12-19T01:03:19.478Z,6.63
2017-12-19T01:04:21.942Z,7.43
2017-12-19T01:05:24.479Z,6.80
2017-12-19T01:06:26.950Z,6.55
2017-12-19T01:07:29.436Z,6.72
2017-12-19T01:08:31.933Z,6.07
2017-12-19T01:09:34.454Z,6.45
2017-12-19T01:10:36.939Z,6.32
2017-12-19T01:11:39.429Z,6.70
2017-12-19T01:12:41.923Z,6.40
2017-12-19T01:13:44.400Z,6.17
2017-12-19T01:14:46.887Z,5.97
2017-12-19T01:15:49.374Z,6.60
2017-12-19T01:16:51.839Z,6.30
2017-12-19T01:17:54.984Z,6.50
2017-12-19T01:18:57.482Z,6.45
2017-12-19T01:19:59.955Z,6.00
2017-12-19T01:21:02.418Z,6.30
2017-12-19T01:22:04.883Z,6.77
2017-12-19T01:23:07.353Z,6.60
2017-12-19T01:24:09.841Z,6.20
2017-12-19T01:25:12.302Z,5.63
2017-12-19T01:26:14.796Z,7.15
2017-12-19T01:27:17.257Z,6.30
2017-12-19T01:28:19.765Z,6.70
2017-12-19T01:29:22.230Z,6.40
2017-12-19T01:30:24.719Z,5.85
2017-12-19T01:31:27.190Z,5.70
2017-12-19T01:32:29.673Z,6.40
2017-12-19T01:33:32.297Z,5.77
2017-12-19T01:34:34.801Z,6.03
2017-12-19T01:35:37.285Z,5.37
2017-12-19T01:36:39.759Z,6.35
2017-12-19T01:37:42.250Z,5.60
2017-12-19T01:38:44.713Z,6.47
2017-12-19T01:39:47.183Z,6.27
2017-12-19T01:40:49.676Z,5.73
2017-12-19T01:41:52.134Z,6.00
2017-12-19T01:42:54.610Z,5.73
2017-12-19T01:43:57.088Z,5.60
2017-12-19T01:44:59.574Z,5.80
2017-12-19T01:46:02.050Z,5.33
2017-12-19T01:47:04.546Z,5.62
2017-12-19T01:48:07.034Z,5.90
2017-12-19T01:49:09.517Z,5.00
2017-12-19T01:50:11.993Z,7.22
2017-12-19T01:51:14.476Z,5.15
2017-12-19T01:52:16.964Z,5.47
2017-12-19T01:53:19.456Z,5.32
2017-12-19T01:54:21.937Z,6.00
2017-12-19T01:55:24.421Z,5.97
2017-12-19T01:56:26.910Z,6.85
2017-12-19T01:57:29.372Z,5.80
2017-12-19T01:58:31.851Z,6.57
2017-12-19T01:59:34.330Z,5.73
2017-12-19T02:00:36.800Z,5.70
2017-12-19T02:01:39.292Z,5.37
2017-12-19T02:02:41.776Z,5.27
2017-12-19T02:03:44.259Z,5.35
2017-12-19T02:04:46.737Z,5.27
2017-12-19T02:05:49.212Z,5.60
2017-12-19T02:06:51.688Z,5.13
2017-12-19T02:07:54.966Z,6.23
2017-12-19T02:08:57.435Z,5.70
2017-12-19T02:09:59.919Z,6.27
2017-12-19T02:11:02.391Z,5.45
2017-12-19T02:12:04.881Z,5.80
2017-12-19T02:13:07.343Z,4.73
2017-12-19T02:14:09.821Z,5.30
2017-12-19T02:15:12.300Z,5.73
2017-12-19T02:16:14.794Z,5.35
2017-12-19T02:17:17.274Z,5.45
2017-12-19T02:18:19.747Z,5.35
2017-12-19T02:19:22.279Z,5.13
2017-12-19T02:20:24.761Z,5.77
2017-12-19T02:21:27.253Z,5.35
2017-12-19T02:22:29.722Z,4.93
2017-12-19T02:23:32.238Z,5.10
2017-12-19T02:24:34.699Z,5.53
2017-12-19T02:25:37.205Z,4.93
2017-12-19T02:26:39.674Z,5.33
2017-12-19T02:27:42.457Z,4.70
2017-12-19T02:28:44.933Z,5.00
2017-12-19T02:29:47.409Z,5.23
2017-12-19T02:30:49.902Z,4.97
2017-12-19T02:31:52.389Z,5.22
2017-12-19T02:32:54.867Z,4.95
2017-12-19T02:33:57.342Z,5.10
2017-12-19T02:34:59.821Z,5.90
2017-12-19T02:36:02.300Z,5.63
2017-12-19T02:37:04.766Z,4.70
2017-12-19T02:38:07.249Z,4.50
2017-12-19T02:39:09.707Z,4.63
2017-12-19T02:40:12.188Z,4.77
2017-12-19T02:41:14.649Z,4.60
2017-12-19T02:42:17.130Z,5.30
2017-12-19T02:43:22.480Z,4.53
2017-12-19T02:44:24.969Z,5.30
2017-12-19T02:45:27.439Z,4.87
2017-12-19T02:46:29.898Z,4.73
2017-12-19T02:47:32.374Z,5.00
2017-12-19T02:48:34.838Z,5.20
2017-12-19T02:49:37.294Z,4.33
2017-12-19T02:50:39.769Z,5.20
2017-12-19T02:51:42.226Z,5.00
2017-12-19T02:52:44.708Z,4.90
2017-12-19T02:53:47.166Z,4.53
2017-12-19T02:54:49.714Z,4.57
2017-12-19T02:55:52.241Z,4.40
2017-12-19T02:56:54.719Z,4.87
2017-12-19T02:57:57.198Z,4.77
2017-12-19T02:58:59.672Z,4.50
2017-12-19T03:00:02.131Z,4.53
2017-12-19T03:01:04.622Z,5.10
2017-12-19T03:02:07.097Z,4.70
2017-12-19T03:03:09.558Z,5.10
2017-12-19T03:04:12.027Z,4.77
2017-12-19T03:05:14.491Z,4.90
2017-12-19T03:06:16.958Z,4.40
2017-12-19T03:07:19.423Z,4.57
2017-12-19T03:08:21.900Z,4.10
2017-12-19T03:09:24.367Z,4.27
2017-12-19T03:10:26.845Z,5.03
2017-12-19T03:11:29.339Z,4.40
2017-12-19T03:12:31.821Z,4.43
2017-12-19T03:13:34.282Z,4.20
2017-12-19T03:14:36.743Z,4.57
2017-12-19T03:15:39.233Z,4.50
2017-12-19T03:16:41.699Z,4.15
2017-12-19T03:17:44.166Z,4.65
2017-12-19T03:18:46.648Z,4.37
2017-12-19T03:19:49.134Z,3.92
2017-12-19T03:20:51.624Z,4.62
2017-12-19T03:21:54.086Z,4.47
2017-12-19T03:22:56.577Z,4.47
2017-12-19T03:23:59.905Z,4.27
2017-12-19T03:25:02.366Z,4.23
2017-12-19T03:26:04.858Z,4.53
2017-12-19T03:27:07.349Z,4.93
2017-12-19T03:28:09.811Z,4.00
2017-12-19T03:29:12.283Z,4.90
2017-12-19T03:30:14.795Z,4.68
2017-12-19T03:31:17.272Z,4.65
2017-12-19T03:32:19.757Z,4.60
2017-12-19T03:33:22.238Z,4.53
2017-12-19T03:34:24.725Z,4.62
2017-12-19T03:35:27.201Z,4.40
2017-12-19T03:36:29.671Z,4.10
2017-12-19T03:37:32.157Z,4.20
2017-12-19T03:38:34.647Z,4.20
2017-12-19T03:39:37.153Z,3.80
2017-12-19T03:40:39.641Z,4.10
2017-12-19T03:41:42.115Z,4.07
2017-12-19T03:42:44.604Z,4.72
2017-12-19T03:43:47.075Z,4.70
2017-12-19T03:44:49.540Z,4.50
2017-12-19T03:45:52.020Z,4.03
2017-12-19T03:46:54.483Z,4.50
2017-12-19T03:47:56.964Z,4.70
2017-12-19T03:48:59.444Z,4.45
2017-12-19T03:50:01.933Z,3.75
2017-12-19T03:51:04.416Z,4.62
2017-12-19T03:52:06.891Z,4.30
2017-12-19T03:53:09.368Z,4.43
2017-12-19T03:54:11.821Z,4.40
2017-12-19T03:55:14.301Z,3.92
2017-12-19T03:56:16.758Z,4.00
2017-12-19T03:57:19.219Z,3.80
2017-12-19T03:58:21.686Z,4.00
2017-12-19T03:59:24.156Z,4.50
2017-12-19T04:00:26.643Z,4.43
2017-12-19T04:01:29.130Z,3.75
2017-12-19T04:02:31.607Z,4.40
2017-12-19T04:03:34.085Z,4.12
2017-12-19T04:04:36.542Z,3.83
2017-12-19T04:05:39.029Z,4.22
2017-12-19T04:06:41.495Z,4.37
2017-12-19T04:07:43.983Z,4.35
2017-12-19T04:08:46.462Z,3.53
2017-12-19T04:09:48.976Z,3.90
2017-12-19T04:10:51.447Z,4.22
2017-12-19T04:11:53.916Z,4.10
2017-12-19T04:12:56.404Z,3.75
2017-12-19T04:13:58.900Z,3.87
2017-12-19T04:15:01.380Z,3.55
2017-12-19T04:16:03.874Z,4.12
2017-12-19T04:17:06.365Z,4.03
2017-12-19T04:18:08.853Z,4.65
2017-12-19T04:19:11.323Z,3.55
2017-12-19T04:20:13.797Z,3.50
2017-12-19T04:21:16.281Z,3.78
2017-12-19T04:22:18.756Z,4.40
2017-12-19T04:23:21.244Z,3.75
2017-12-19T04:24:23.728Z,3.90
2017-12-19T04:25:26.213Z,3.72
2017-12-19T04:26:28.671Z,4.00
2017-12-19T04:27:31.183Z,3.95
2017-12-19T04:28:33.664Z,3.53
2017-12-19T04:29:36.152Z,3.97
2017-12-19T04:30:38.615Z,3.70
2017-12-19T04:31:41.078Z,3.97
2017-12-19T04:32:43.578Z,3.80
2017-12-19T04:33:46.049Z,4.43
2017-12-19T04:34:48.537Z,4.03
2017-12-19T04:35:51.009Z,3.43
2017-12-19T04:36:53.466Z,4.07
2017-12-19T04:37:55.964Z,3.87
2017-12-19T04:38:58.440Z,4.10
2017-12-19T04:40:00.917Z,3.20
2017-12-19T04:41:03.447Z,3.70
2017-12-19T04:42:05.942Z,3.80
2017-12-19T04:43:08.394Z,3.27
2017-12-19T04:44:10.921Z,3.97
2017-12-19T04:45:13.386Z,3.10
2017-12-19T04:46:15.872Z,3.62
2017-12-19T04:47:18.352Z,4.00
2017-12-19T04:48:20.829Z,3.63
2017-12-19T04:49:23.344Z,3.60
2017-12-19T04:50:25.802Z,3.53
2017-12-19T04:51:28.263Z,4.40
2017-12-19T04:52:30.722Z,3.87
2017-12-19T04:53:33.197Z,3.83
2017-12-19T04:54:35.678Z,3.63
2017-12-19T04:55:38.134Z,3.90
2017-12-19T04:56:40.592Z,3.43
2017-12-19T04:57:43.170Z,3.78
2017-12-19T04:58:45.632Z,3.83
2017-12-19T04:59:48.112Z,4.00
2017-12-19T05:00:50.572Z,5.00
2017-12-19T05:01:53.036Z,5.17
2017-12-19T05:02:55.501Z,5.03
2017-12-19T05:03:58.000Z,4.10
2017-12-19T05:05:00.500Z,4.70
2017-12-19T05:06:02.970Z,4.78
2017-12-19T05:07:05.443Z,4.95
2017-12-19T05:08:07.910Z,4.35
2017-12-19T05:09:10.392Z,4.00
2017-12-19T05:10:12.880Z,5.30
2017-12-19T05:11:15.364Z,4.30
2017-12-19T05:12:17.888Z,4.85
2017-12-19T05:13:20.355Z,4.28
2017-12-19T05:14:22.844Z,5.10
2017-12-19T05:15:25.361Z,4.22
2017-12-19T05:16:27.827Z,4.17
2017-12-19T05:17:30.305Z,5.30
2017-12-19T05:18:32.778Z,4.57
2017-12-19T05:19:35.251Z,4.75
2017-12-19T05:20:37.713Z,4.10
2017-12-19T05:21:40.183Z,4.47
2017-12-19T05:22:42.661Z,4.30
2017-12-19T05:23:45.145Z,3.97
2017-12-19T05:24:47.889Z,4.22
2017-12-19T05:25:50.370Z,3.78
2017-12-19T05:26:52.848Z,4.20
2017-12-19T05:27:55.470Z,5.05
2017-12-19T05:28:57.995Z,4.22
2017-12-19T05:30:00.460Z,4.10
2017-12-19T05:31:02.936Z,4.47
2017-12-19T05:32:05.506Z,3.70
2017-12-19T05:33:08.001Z,4.87
2017-12-19T05:34:10.480Z,4.60
2017-12-19T05:35:12.955Z,3.70
2017-12-19T05:36:15.916Z,3.85
2017-12-19T05:37:18.396Z,3.72
2017-12-19T05:38:20.884Z,4.82
2017-12-19T05:39:23.350Z,4.12
2017-12-19T05:40:25.824Z,5.00
2017-12-19T05:41:28.342Z,4.00
2017-12-19T05:42:30.833Z,4.05
2017-12-19T05:43:33.477Z,3.90
2017-12-19T05:44:35.953Z,3.95
2017-12-19T05:45:38.436Z,4.95
2017-12-19T05:46:40.939Z,4.12
2017-12-19T05:47:43.431Z,4.70
2017-12-19T05:48:45.919Z,3.95
2017-12-19T05:49:48.401Z,4.37
2017-12-19T05:50:50.889Z,4.05
2017-12-19T05:51:53.382Z,3.80
2017-12-19T05:52:55.889Z,4.20
2017-12-19T05:53:58.393Z,4.55
2017-12-19T05:55:00.858Z,4.03
2017-12-19T05:56:03.330Z,4.15
2017-12-19T05:57:05.812Z,4.10
2017-12-19T05:58:08.302Z,4.60
2017-12-19T05:59:10.788Z,4.00
2017-12-19T06:00:13.294Z,4.10
2017-12-19T06:01:15.787Z,5.10
2017-12-19T06:02:18.318Z,3.83
2017-12-19T06:03:20.794Z,4.75
2017-12-19T06:04:23.285Z,4.43
2017-12-19T06:05:25.764Z,4.15
2017-12-19T06:06:28.244Z,4.60
2017-12-19T06:07:30.714Z,5.65
2017-12-19T06:08:33.200Z,5.35
2017-12-19T06:09:35.685Z,4.43
2017-12-19T06:10:38.165Z,4.80
2017-12-19T06:11:40.654Z,5.70
2017-12-19T06:12:43.138Z,4.75
2017-12-19T06:13:45.629Z,4.70
2017-12-19T06:14:48.127Z,4.65
2017-12-19T06:15:50.595Z,5.72
2017-12-19T06:16:53.063Z,4.80
2017-12-19T06:17:55.549Z,4.40
2017-12-19T06:18:58.027Z,5.10
2017-12-19T06:20:00.514Z,5.18
2017-12-19T06:21:03.009Z,4.97
2017-12-19T06:22:05.495Z,4.82
2017-12-19T06:23:07.962Z,4.82
2017-12-19T06:24:10.431Z,5.25
2017-12-19T06:25:12.916Z,4.70
2017-12-19T06:26:15.386Z,4.35
2017-12-19T06:27:18.348Z,4.78
2017-12-19T06:28:20.827Z,5.37
2017-12-19T06:29:23.298Z,4.90
2017-12-19T06:30:25.763Z,5.03
2017-12-19T06:31:28.236Z,4.90
2017-12-19T06:32:30.707Z,4.62
2017-12-19T06:33:33.198Z,5.53
2017-12-19T06:34:35.688Z,5.12
2017-12-19T06:35:38.158Z,4.43
2017-12-19T06:36:40.627Z,5.15
2017-12-19T06:37:43.108Z,4.97
2017-12-19T06:38:45.579Z,5.62
2017-12-19T06:39:48.078Z,4.62
2017-12-19T06:40:50.558Z,4.50
2017-12-19T06:41:53.022Z,4.80
2017-12-19T06:42:55.515Z,5.53
2017-12-19T06:43:58.009Z,5.03
2017-12-19T06:45:00.570Z,5.95
2017-12-19T06:46:03.075Z,4.90
2017-12-19T06:47:05.543Z,5.93
2017-12-19T06:48:08.028Z,5.50
2017-12-19T06:49:10.520Z,5.95
2017-12-19T06:50:12.991Z,5.03
2017-12-19T06:51:15.466Z,5.18
2017-12-19T06:52:18.105Z,5.22
2017-12-19T06:53:20.574Z,5.15
2017-12-19T06:54:23.097Z,5.35
2017-12-19T06:55:25.581Z,4.95
2017-12-19T06:56:28.068Z,5.22
2017-12-19T06:57:30.552Z,5.40
2017-12-19T06:58:33.019Z,4.35
2017-12-19T06:59:35.498Z,5.82
2017-12-19T07:00:37.989Z,5.68
2017-12-19T07:01:40.473Z,5.20
2017-12-19T07:02:42.957Z,5.60
2017-12-19T07:03:45.441Z,4.90
2017-12-19T07:04:47.925Z,6.12
2017-12-19T07:05:50.390Z,5.70
2017-12-19T07:06:52.894Z,4.90
2017-12-19T07:07:55.386Z,5.90
2017-12-19T07:08:58.005Z,6.25
2017-12-19T07:10:00.493Z,6.35
2017-12-19T07:11:02.989Z,5.95
2017-12-19T07:12:05.475Z,5.60
2017-12-19T07:13:08.162Z,5.22
2017-12-19T07:14:10.642Z,5.87
2017-12-19T07:15:13.124Z,5.90
2017-12-19T07:16:15.609Z,6.18
2017-12-19T07:17:18.075Z,5.30
2017-12-19T07:18:20.543Z,5.53
2017-12-19T07:19:23.019Z,5.60
2017-12-19T07:20:25.504Z,5.15
2017-12-19T07:21:27.986Z,5.28
2017-12-19T07:22:30.455Z,5.70
2017-12-19T07:23:32.948Z,5.72
2017-12-19T07:24:35.445Z,5.95
2017-12-19T07:25:37.937Z,5.00
2017-12-19T07:26:40.402Z,5.87
2017-12-19T07:27:42.874Z,6.07
2017-12-19T07:28:45.343Z,5.05
2017-12-19T07:29:47.824Z,5.07
2017-12-19T07:30:50.294Z,5.20
2017-12-19T07:31:52.784Z,5.57
2017-12-19T07:32:55.251Z,5.87
2017-12-19T07:33:57.723Z,5.25
2017-12-19T07:35:00.274Z,5.60
2017-12-19T07:36:04.264Z,5.15
2017-12-19T07:37:06.748Z,6.18
2017-12-19T07:38:09.284Z,5.60
2017-12-19T07:39:11.769Z,5.70
2017-12-19T07:40:14.254Z,5.15
2017-12-19T07:41:16.732Z,5.20
2017-12-19T07:42:19.217Z,6.10
2017-12-19T07:43:21.686Z,5.57
2017-12-19T07:44:24.169Z,6.47
2017-12-19T07:45:26.638Z,5.35
2017-12-19T07:46:29.121Z,5.70
2017-12-19T07:47:31.594Z,5.75
2017-12-19T07:48:34.082Z,5.18
2017-12-19T07:49:36.558Z,6.25
2017-12-19T07:50:39.026Z,5.93
2017-12-19T07:51:41.520Z,5.32
2017-12-19T07:52:44.100Z,5.78
2017-12-19T07:53:46.572Z,5.20
2017-12-19T07:54:49.038Z,5.35
2017-12-19T07:55:51.510Z,4.60
2017-12-19T07:56:54.000Z,5.80
2017-12-19T07:57:56.484Z,5.87
2017-12-19T07:58:58.950Z,5.47
2017-12-19T08:00:01.558Z,5.50
2017-12-19T08:01:04.065Z,5.65
2017-12-19T08:02:06.542Z,6.10
2017-12-19T08:03:09.014Z,5.50
2017-12-19T08:04:11.494Z,5.60
2017-12-19T08:05:13.983Z,5.72
2017-12-19T08:06:16.473Z,6.35
2017-12-19T08:07:18.957Z,4.72
2017-12-19T08:08:21.445Z,4.87
2017-12-19T08:09:23.965Z,6.05
2017-12-19T08:10:26.437Z,5.93
2017-12-19T08:11:28.910Z,5.70
2017-12-19T08:12:31.392Z,4.82
2017-12-19T08:13:33.881Z,5.37
2017-12-19T08:14:36.355Z,4.12
2017-12-19T08:15:38.841Z,5.47
2017-12-19T08:16:41.334Z,5.85
2017-12-19T08:17:43.806Z,5.30
2017-12-19T08:18:46.285Z,4.97
2017-12-19T08:19:48.750Z,5.12
2017-12-19T08:20:51.222Z,5.35
2017-12-19T08:21:53.711Z,5.03
2017-12-19T08:22:56.176Z,5.60
2017-12-19T08:23:58.669Z,8.32
2017-12-19T08:25:01.140Z,10.85
2017-12-19T08:26:03.628Z,12.52
2017-12-19T08:27:06.112Z,10.05
2017-12-19T08:28:08.590Z,11.52
2017-12-19T08:29:11.066Z,10.93
2017-12-19T08:30:13.553Z,12.43
2017-12-19T08:31:16.022Z,12.52
2017-12-19T08:32:18.516Z,13.55
2017-12-19T08:33:20.991Z,13.07
2017-12-19T08:34:23.483Z,14.43
2017-12-19T08:35:25.994Z,15.15
2017-12-19T08:36:28.483Z,16.90
2017-12-19T08:37:30.968Z,14.73
2017-12-19T08:38:33.457Z,15.70
2017-12-19T08:39:35.954Z,15.35
2017-12-19T08:40:38.440Z,15.23
2017-12-19T08:41:40.911Z,14.05
2017-12-19T08:42:43.504Z,16.00
2017-12-19T08:43:46.111Z,14.55
2017-12-19T08:44:48.601Z,16.17
2017-12-19T08:45:51.091Z,16.20
2017-12-19T08:46:53.581Z,15.35
2017-12-19T08:47:56.059Z,15.50
2017-12-19T08:48:58.539Z,16.02
2017-12-19T08:50:01.032Z,16.30
2017-12-19T08:51:03.508Z,17.12
2017-12-19T08:52:06.048Z,16.05
2017-12-19T08:53:08.492Z,15.93
2017-12-19T08:54:10.971Z,16.77
2017-12-19T08:55:13.460Z,15.98
2017-12-19T08:56:15.957Z,15.05
2017-12-19T08:57:18.472Z,16.77
2017-12-19T08:58:21.160Z,15.75
2017-12-19T08:59:23.680Z,15.75
2017-12-19T09:00:26.156Z,15.00
2017-12-19T09:01:28.677Z,15.35
2017-12-19T09:02:31.173Z,15.13
2017-12-19T09:03:33.670Z,16.95
2017-12-19T09:04:36.324Z,15.90
2017-12-19T09:05:38.875Z,14.27
2017-12-19T09:06:41.368Z,15.27
2017-12-19T09:07:43.874Z,15.27
2017-12-19T09:08:46.368Z,15.13
2017-12-19T09:09:48.938Z,15.00
2017-12-19T09:10:51.423Z,14.82
2017-12-19T09:11:53.973Z,15.50
2017-12-19T09:12:56.446Z,14.70
2017-12-19T09:13:58.975Z,15.77
2017-12-19T09:15:01.452Z,15.23
2017-12-19T09:16:03.944Z,15.68
2017-12-19T09:17:06.429Z,15.82
2017-12-19T09:18:08.961Z,14.95
2017-12-19T09:19:11.390Z,15.77
2017-12-19T09:20:13.877Z,16.03
2017-12-19T09:21:16.374Z,14.73
2017-12-19T09:22:18.843Z,14.37
2017-12-19T09:23:21.311Z,14.80
2017-12-19T09:24:23.788Z,15.63
2017-12-19T09:25:26.264Z,15.30
2017-12-19T09:26:28.803Z,14.60
2017-12-19T09:27:31.334Z,14.63
2017-12-19T09:28:33.828Z,14.80
2017-12-19T09:29:36.296Z,15.00
2017-12-19T09:30:38.774Z,14.55
2017-12-19T09:31:41.273Z,14.10
2017-12-19T09:32:43.753Z,13.33
2017-12-19T09:33:46.242Z,13.55
2017-12-19T09:34:48.711Z,13.80
2017-12-19T09:35:51.189Z,14.40
2017-12-19T09:36:53.689Z,14.18
2017-12-19T09:37:56.162Z,12.73
2017-12-19T09:38:58.639Z,14.00
2017-12-19T09:40:01.117Z,12.97
2017-12-19T09:41:03.595Z,13.80
2017-12-19T09:42:06.074Z,12.43
2017-12-19T09:43:08.569Z,12.98
2017-12-19T09:44:11.061Z,12.93
2017-12-19T09:45:13.548Z,13.70
2017-12-19T09:46:16.017Z,13.00
2017-12-19T09:47:18.506Z,12.68
2017-12-19T09:48:20.974Z,12.37
2017-12-19T09:49:23.442Z,12.97
2017-12-19T09:50:25.902Z,11.63
2017-12-19T09:51:28.393Z,12.30
2017-12-19T09:52:30.873Z,11.80
2017-12-19T09:53:33.354Z,11.80
2017-12-19T09:54:35.836Z,10.40
2017-12-19T09:55:38.305Z,10.80
2017-12-19T09:56:40.774Z,12.50
2017-12-19T09:57:43.266Z,11.20
2017-12-19T09:58:45.769Z,11.70
2017-12-19T09:59:48.244Z,11.37
2017-12-19T10:00:50.711Z,10.87
2017-12-19T10:01:53.201Z,10.60
2017-12-19T10:02:56.049Z,11.37
2017-12-19T10:03:58.528Z,11.50
2017-12-19T10:05:00.990Z,11.33
2017-12-19T10:06:03.471Z,11.32
2017-12-19T10:07:05.932Z,11.23
2017-12-19T10:08:08.413Z,11.60
2017-12-19T10:09:10.893Z,11.07
2017-12-19T10:10:13.378Z,11.47
2017-12-19T10:11:15.843Z,11.83
2017-12-19T10:12:18.307Z,10.60
2017-12-19T10:13:20.774Z,12.03
2017-12-19T10:14:23.312Z,10.47
2017-12-19T10:15:25.791Z,10.23
2017-12-19T10:16:28.281Z,11.00
2017-12-19T10:17:30.750Z,10.93
2017-12-19T10:18:33.245Z,10.43
2017-12-19T10:19:35.726Z,9.60
2017-12-19T10:20:38.221Z,9.80
2017-12-19T10:21:40.691Z,10.10
2017-12-19T10:22:43.230Z,9.40
2017-12-19T10:23:45.699Z,11.03
2017-12-19T10:24:48.182Z,9.60
2017-12-19T10:25:50.912Z,10.33
2017-12-19T10:26:53.386Z,9.60
2017-12-19T10:27:56.140Z,9.80
2017-12-19T10:28:58.708Z,9.30
2017-12-19T10:30:01.171Z,9.37
2017-12-19T10:31:04.128Z,9.33
2017-12-19T10:32:06.887Z,10.43
2017-12-19T10:33:09.371Z,9.87
2017-12-19T10:34:11.832Z,10.90
2017-12-19T10:35:14.298Z,10.30
2017-12-19T10:36:16.778Z,12.30
2017-12-19T10:37:19.244Z,11.40
2017-12-19T10:38:21.709Z,12.73
2017-12-19T10:39:24.194Z,11.97
2017-12-19T10:40:26.713Z,12.47
2017-12-19T10:41:29.201Z,11.23
2017-12-19T10:42:31.691Z,12.17
2017-12-19T10:43:34.155Z,11.93
2017-12-19T10:44:36.637Z,11.90
2017-12-19T10:45:39.114Z,11.70
2017-12-19T10:46:41.616Z,12.07
2017-12-19T10:47:44.094Z,13.90
2017-12-19T10:48:46.578Z,14.57
2017-12-19T10:49:49.120Z,15.00
2017-12-19T10:50:51.582Z,13.67
2017-12-19T10:51:54.046Z,13.80
2017-12-19T10:52:56.515Z,13.30
2017-12-19T10:53:58.997Z,12.40
2017-12-19T10:55:01.463Z,13.60
2017-12-19T10:56:03.975Z,12.07
2017-12-19T10:57:06.726Z,13.33
2017-12-19T10:58:09.207Z,11.33
2017-12-19T10:59:11.685Z,13.90
2017-12-19T11:00:14.154Z,10.90
2017-12-19T11:01:16.614Z,10.50
2017-12-19T11:02:19.114Z,11.03
2017-12-19T11:03:21.586Z,11.03
2017-12-19T11:04:24.107Z,11.70
2017-12-19T11:05:26.589Z,10.77
2017-12-19T11:06:29.053Z,11.00
2017-12-19T11:07:31.518Z,11.17
2017-12-19T11:08:33.983Z,11.43
2017-12-19T11:09:36.447Z,11.33
2017-12-19T11:10:38.928Z,11.83
2017-12-19T11:11:41.405Z,11.83
2017-12-19T11:12:43.880Z,10.73
2017-12-19T11:13:46.377Z,11.50
2017-12-19T11:14:48.842Z,10.70
2017-12-19T11:15:51.314Z,11.80
2017-12-19T11:16:53.778Z,13.07
2017-12-19T11:17:56.241Z,12.37
2017-12-19T11:18:58.729Z,13.20
2017-12-19T11:20:01.209Z,13.87
2017-12-19T11:21:03.693Z,16.50
2017-12-19T11:22:06.187Z,14.50
2017-12-19T11:23:08.669Z,15.13
2017-12-19T11:24:11.135Z,14.60
2017-12-19T11:25:13.616Z,18.43
2017-12-19T11:26:16.097Z,13.10
2017-12-19T11:27:18.562Z,15.37
2017-12-19T11:28:22.292Z,16.43
2017-12-19T11:29:24.750Z,18.30
2017-12-19T11:30:27.236Z,17.70
2017-12-19T11:31:29.716Z,16.57
2017-12-19T11:32:32.186Z,17.60
2017-12-19T11:33:34.702Z,17.70
2017-12-19T11:34:37.171Z,15.90
2017-12-19T11:35:39.647Z,16.73
2017-12-19T11:36:42.278Z,16.47
2017-12-19T11:37:44.758Z,17.67
2017-12-19T11:38:47.226Z,18.60
2017-12-19T11:39:49.707Z,16.30
2017-12-19T11:40:52.198Z,16.07
2017-12-19T11:41:54.680Z,18.10
2017-12-19T11:42:57.169Z,17.60
2017-12-19T11:43:59.639Z,16.87
2017-12-19T11:45:02.114Z,17.00
2017-12-19T11:46:04.596Z,17.40
2017-12-19T11:47:07.655Z,16.87
2017-12-19T11:48:10.115Z,16.80
2017-12-19T11:49:12.592Z,17.23
2017-12-19T11:50:15.073Z,16.57
2017-12-19T11:51:17.543Z,15.80
2017-12-19T11:52:20.079Z,16.70
2017-12-19T11:53:22.579Z,15.30
2017-12-19T11:54:25.047Z,15.13
2017-12-19T11:55:27.533Z,15.03
2017-12-19T11:56:30.099Z,15.63
2017-12-19T11:57:32.581Z,14.83
2017-12-19T11:58:35.046Z,16.07
2017-12-19T11:59:37.534Z,14.60
2017-12-19T12:00:40.012Z,13.93
2017-12-19T12:01:42.494Z,14.70
2017-12-19T12:02:45.158Z,14.20
2017-12-19T12:03:47.623Z,15.70
2017-12-19T12:04:50.156Z,14.60
2017-12-19T12:05:52.636Z,14.07
2017-12-19T12:06:55.099Z,14.87
2017-12-19T12:07:57.705Z,13.93
2017-12-19T12:09:00.171Z,13.13
2017-12-19T12:10:02.643Z,13.33
2017-12-19T12:11:05.125Z,12.60
2017-12-19T12:12:07.591Z,11.70
2017-12-19T12:13:10.059Z,12.70
2017-12-19T12:14:12.622Z,12.90
2017-12-19T12:15:15.091Z,12.53
2017-12-19T12:16:17.609Z,12.97
2017-12-19T12:17:20.087Z,12.47
2017-12-19T12:18:22.569Z,13.10
2017-12-19T12:19:25.052Z,13.47
2017-12-19T12:20:27.528Z,13.03
2017-12-19T12:21:30.010Z,12.67
2017-12-19T12:22:32.492Z,13.17
2017-12-19T12:23:34.973Z,12.20
2017-12-19T12:24:37.454Z,12.20
2017-12-19T12:25:39.918Z,11.10
2017-12-19T12:26:42.403Z,12.60
2017-12-19T12:27:44.862Z,12.77
2017-12-19T12:28:47.326Z,12.27
2017-12-19T12:29:49.957Z,12.10
2017-12-19T12:30:52.789Z,11.13
2017-12-19T12:31:55.338Z,11.83
2017-12-19T12:32:57.802Z,12.20
2017-12-19T12:34:00.271Z,11.97
2017-12-19T12:35:02.748Z,11.30
2017-12-19T12:36:05.231Z,12.63
2017-12-19T12:37:07.708Z,11.73
2017-12-19T12:38:11.230Z,10.40
2017-12-19T12:39:13.995Z,11.63
2017-12-19T12:40:16.473Z,10.87
2017-12-19T12:41:18.954Z,11.50
2017-12-19T12:42:21.427Z,11.53
2017-12-19T12:43:24.278Z,12.27
2017-12-19T12:44:26.750Z,12.43
2017-12-19T12:45:29.231Z,10.60
2017-12-19T12:46:31.721Z,10.03
2017-12-19T12:47:34.218Z,10.43
2017-12-19T12:48:36.714Z,10.60
2017-12-19T12:49:39.188Z,11.00
2017-12-19T12:50:41.672Z,11.00
2017-12-19T12:51:44.146Z,10.43
2017-12-19T12:52:46.623Z,10.80
2017-12-19T12:53:49.102Z,10.65
2017-12-19T12:54:51.592Z,10.18
2017-12-19T12:55:54.081Z,11.27
2017-12-19T12:56:56.556Z,10.10
2017-12-19T12:57:59.052Z,10.00
2017-12-19T12:59:01.523Z,11.10
2017-12-19T13:00:03.994Z,9.73
2017-12-19T13:01:06.460Z,10.43
2017-12-19T13:02:09.010Z,10.18
2017-12-19T13:03:11.522Z,9.90
2017-12-19T13:04:13.997Z,9.27
2017-12-19T13:05:16.472Z,10.43
2017-12-19T13:06:18.948Z,9.07
2017-12-19T13:07:21.428Z,9.50
2017-12-19T13:08:23.909Z,10.57
2017-12-19T13:09:26.380Z,10.90
2017-12-19T13:10:28.842Z,9.30
2017-12-19T13:11:31.322Z,9.63
2017-12-19T13:12:33.799Z,9.53
2017-12-19T13:13:36.259Z,9.27
2017-12-19T13:14:38.718Z,9.83
2017-12-19T13:15:41.254Z,10.47
2017-12-19T13:16:43.718Z,9.60
2017-12-19T13:17:46.320Z,8.87
2017-12-19T13:18:48.824Z,9.10
2017-12-19T13:19:51.296Z,8.43
2017-12-19T13:20:53.781Z,8.80
2017-12-19T13:21:56.271Z,8.93
2017-12-19T13:22:58.763Z,9.70
2017-12-19T13:24:01.241Z,9.10
2017-12-19T13:25:03.729Z,10.40
2017-12-19T13:26:06.191Z,9.87
2017-12-19T13:27:08.668Z,8.33
2017-12-19T13:28:11.147Z,8.68
2017-12-19T13:29:13.618Z,9.10
2017-12-19T13:30:16.104Z,8.43
2017-12-19T13:31:18.616Z,10.15
2017-12-19T13:32:21.090Z,9.35
2017-12-19T13:33:23.577Z,8.27
2017-12-19T13:34:26.073Z,9.35
2017-12-19T13:35:28.550Z,10.15
2017-12-19T13:36:31.143Z,8.48
2017-12-19T13:37:33.615Z,9.30
2017-12-19T13:38:36.091Z,9.15
2017-12-19T13:39:38.580Z,9.55
2017-12-19T13:40:41.069Z,8.95
2017-12-19T13:41:43.530Z,8.57
2017-12-19T13:42:46.043Z,8.18